sensor_id;sensor_type;location;lat;lon;timestamp;temperature;humidity
6142;DHT22;71289;51.552;6.210;2024-03-29T00:00:43;9.60;99.90
6142;DHT22;71289;51.552;6.210;2024-03-29T00:03:12;9.50;99.90
6142;DHT22;71289;51.552;6.210;2024-03-29T00:05:38;9.50;99.90
6142;DHT22;71289;51.552;6.210;2024-03-29T00:08:04;9.50;99.90
6142;DHT22;71289;51.552;6.210;2024-03-29T00:10:30;9.50;99.90
6142;DHT22;71289;51.552;6.210;2024-03-29T00:12:56;9.50;99.90
6142;DHT22;71289;51.552;6.210;2024-03-29T00:15:21;9.40;99.90
6142;DHT22;71289;51.552;6.210;2024-03-29T00:17:47;9.80;99.90
6142;DHT22;71289;51.552;6.210;2024-03-29T00:20:12;9.70;99.90
6142;DHT22;71289;51.552;6.210;2024-03-29T00:22:38;9.70;99.90
6142;DHT22;71289;51.552;6.210;2024-03-29T00:25:04;9.50;99.90
6142;DHT22;71289;51.552;6.210;2024-03-29T00:27:30;9.50;99.90
6142;DHT22;71289;51.552;6.210;2024-03-29T00:29:56;9.50;99.90
6142;DHT22;71289;51.552;6.210;2024-03-29T00:32:22;9.40;99.90
6142;DHT22;71289;51.552;6.210;2024-03-29T00:34:51;9.40;99.90
6142;DHT22;71289;51.552;6.210;2024-03-29T00:37:17;9.40;99.90
6142;DHT22;71289;51.552;6.210;2024-03-29T00:39:44;9.80;99.90
6142;DHT22;71289;51.552;6.210;2024-03-29T00:42:09;9.40;99.90
6142;DHT22;71289;51.552;6.210;2024-03-29T00:44:38;9.40;99.90
6142;DHT22;71289;51.552;6.210;2024-03-29T00:47:04;9.40;99.90
6142;DHT22;71289;51.552;6.210;2024-03-29T00:49:30;9.40;99.90
6142;DHT22;71289;51.552;6.210;2024-03-29T00:51:56;9.40;99.90
6142;DHT22;71289;51.552;6.210;2024-03-29T00:54:21;9.50;99.90
6142;DHT22;71289;51.552;6.210;2024-03-29T00:56:49;9.50;99.90
6142;DHT22;71289;51.552;6.210;2024-03-29T00:59:15;9.50;99.90
6142;DHT22;71289;51.552;6.210;2024-03-29T01:01:40;9.50;99.90
6142;DHT22;71289;51.552;6.210;2024-03-29T01:04:06;9.40;99.90
6142;DHT22;71289;51.552;6.210;2024-03-29T01:06:31;9.60;99.90
6142;DHT22;71289;51.552;6.210;2024-03-29T01:08:57;9.50;99.90
6142;DHT22;71289;51.552;6.210;2024-03-29T01:11:22;9.70;99.90
6142;DHT22;71289;51.552;6.210;2024-03-29T01:13:48;9.50;99.90
6142;DHT22;71289;51.552;6.210;2024-03-29T01:16:14;9.50;99.90
6142;DHT22;71289;51.552;6.210;2024-03-29T01:18:39;9.50;99.90
6142;DHT22;71289;51.552;6.210;2024-03-29T01:21:06;9.70;99.90
6142;DHT22;71289;51.552;6.210;2024-03-29T01:23:32;9.50;99.90
6142;DHT22;71289;51.552;6.210;2024-03-29T01:25:57;9.50;99.90
6142;DHT22;71289;51.552;6.210;2024-03-29T01:28:23;9.50;99.90
6142;DHT22;71289;51.552;6.210;2024-03-29T01:30:53;9.50;99.90
6142;DHT22;71289;51.552;6.210;2024-03-29T01:33:20;9.50;99.90
6142;DHT22;71289;51.552;6.210;2024-03-29T01:35:47;9.50;99.90
6142;DHT22;71289;51.552;6.210;2024-03-29T01:38:15;9.50;99.90
6142;DHT22;71289;51.552;6.210;2024-03-29T01:40:40;9.60;99.90
6142;DHT22;71289;51.552;6.210;2024-03-29T01:43:06;9.60;99.90
6142;DHT22;71289;51.552;6.210;2024-03-29T01:45:35;9.60;99.90
6142;DHT22;71289;51.552;6.210;2024-03-29T01:48:00;9.60;99.90
6142;DHT22;71289;51.552;6.210;2024-03-29T01:50:26;9.60;99.90
6142;DHT22;71289;51.552;6.210;2024-03-29T01:52:52;9.60;99.90
6142;DHT22;71289;51.552;6.210;2024-03-29T01:55:18;9.90;99.90
6142;DHT22;71289;51.552;6.210;2024-03-29T01:57:44;9.60;99.90
6142;DHT22;71289;51.552;6.210;2024-03-29T02:00:10;9.60;99.90
6142;DHT22;71289;51.552;6.210;2024-03-29T02:02:36;9.60;99.90
6142;DHT22;71289;51.552;6.210;2024-03-29T02:05:02;9.50;99.90
6142;DHT22;71289;51.552;6.210;2024-03-29T02:07:30;9.60;99.90
6142;DHT22;71289;51.552;6.210;2024-03-29T02:09:55;9.70;99.90
6142;DHT22;71289;51.552;6.210;2024-03-29T02:12:21;9.70;99.90
6142;DHT22;71289;51.552;6.210;2024-03-29T02:14:47;9.70;99.90
6142;DHT22;71289;51.552;6.210;2024-03-29T02:17:12;9.70;99.90
6142;DHT22;71289;51.552;6.210;2024-03-29T02:19:38;9.60;99.90
6142;DHT22;71289;51.552;6.210;2024-03-29T02:22:03;9.60;99.90
6142;DHT22;71289;51.552;6.210;2024-03-29T02:24:31;9.60;99.90
6142;DHT22;71289;51.552;6.210;2024-03-29T02:26:57;9.60;99.90
6142;DHT22;71289;51.552;6.210;2024-03-29T02:29:24;9.60;99.90
6142;DHT22;71289;51.552;6.210;2024-03-29T02:31:50;9.60;99.90
6142;DHT22;71289;51.552;6.210;2024-03-29T02:34:15;9.60;99.90
6142;DHT22;71289;51.552;6.210;2024-03-29T02:36:42;9.60;99.90
6142;DHT22;71289;51.552;6.210;2024-03-29T02:39:09;9.60;99.90
6142;DHT22;71289;51.552;6.210;2024-03-29T02:41:35;9.50;99.90
6142;DHT22;71289;51.552;6.210;2024-03-29T02:44:01;9.60;99.90
6142;DHT22;71289;51.552;6.210;2024-03-29T02:46:26;9.60;99.90
6142;DHT22;71289;51.552;6.210;2024-03-29T02:48:52;9.80;99.90
6142;DHT22;71289;51.552;6.210;2024-03-29T02:51:17;9.60;99.90
6142;DHT22;71289;51.552;6.210;2024-03-29T02:53:43;9.60;99.90
6142;DHT22;71289;51.552;6.210;2024-03-29T02:56:09;9.60;99.90
6142;DHT22;71289;51.552;6.210;2024-03-29T02:58:35;9.60;99.90
6142;DHT22;71289;51.552;6.210;2024-03-29T03:01:07;9.60;99.90
6142;DHT22;71289;51.552;6.210;2024-03-29T03:03:34;9.60;99.90
6142;DHT22;71289;51.552;6.210;2024-03-29T03:06:00;9.50;99.90
6142;DHT22;71289;51.552;6.210;2024-03-29T03:08:25;9.50;99.90
6142;DHT22;71289;51.552;6.210;2024-03-29T03:11:09;9.40;99.90
6142;DHT22;71289;51.552;6.210;2024-03-29T03:13:35;9.30;99.90
6142;DHT22;71289;51.552;6.210;2024-03-29T03:16:01;9.30;99.90
6142;DHT22;71289;51.552;6.210;2024-03-29T03:18:26;9.20;99.90
6142;DHT22;71289;51.552;6.210;2024-03-29T03:20:55;9.20;99.90
6142;DHT22;71289;51.552;6.210;2024-03-29T03:23:23;9.40;99.90
6142;DHT22;71289;51.552;6.210;2024-03-29T03:26:03;9.10;99.90
6142;DHT22;71289;51.552;6.210;2024-03-29T03:28:29;9.10;99.90
6142;DHT22;71289;51.552;6.210;2024-03-29T03:30:54;9.00;99.90
6142;DHT22;71289;51.552;6.210;2024-03-29T03:33:20;9.00;99.90
6142;DHT22;71289;51.552;6.210;2024-03-29T03:35:46;9.00;99.90
6142;DHT22;71289;51.552;6.210;2024-03-29T03:38:12;9.00;99.90
6142;DHT22;71289;51.552;6.210;2024-03-29T03:40:38;9.00;99.90
6142;DHT22;71289;51.552;6.210;2024-03-29T03:43:04;9.00;99.90
6142;DHT22;71289;51.552;6.210;2024-03-29T03:45:38;9.10;99.90
6142;DHT22;71289;51.552;6.210;2024-03-29T03:48:05;9.10;99.90
6142;DHT22;71289;51.552;6.210;2024-03-29T03:50:31;9.00;99.90
6142;DHT22;71289;51.552;6.210;2024-03-29T03:52:57;9.10;99.90
6142;DHT22;71289;51.552;6.210;2024-03-29T03:55:23;9.10;99.90
6142;DHT22;71289;51.552;6.210;2024-03-29T03:57:48;9.10;99.90
6142;DHT22;71289;51.552;6.210;2024-03-29T04:00:14;9.00;99.90
6142;DHT22;71289;51.552;6.210;2024-03-29T04:02:40;9.00;99.90
6142;DHT22;71289;51.552;6.210;2024-03-29T04:05:06;8.90;99.90
6142;DHT22;71289;51.552;6.210;2024-03-29T04:07:32;8.90;99.90
6142;DHT22;71289;51.552;6.210;2024-03-29T04:09:58;8.80;99.90
6142;DHT22;71289;51.552;6.210;2024-03-29T04:12:23;8.70;99.90
6142;DHT22;71289;51.552;6.210;2024-03-29T04:14:49;8.80;99.90
6142;DHT22;71289;51.552;6.210;2024-03-29T04:17:14;8.50;99.90
6142;DHT22;71289;51.552;6.210;2024-03-29T04:19:40;8.70;99.90
6142;DHT22;71289;51.552;6.210;2024-03-29T04:22:06;8.60;99.90
6142;DHT22;71289;51.552;6.210;2024-03-29T04:24:31;8.70;99.90
6142;DHT22;71289;51.552;6.210;2024-03-29T04:26:57;8.50;99.90
6142;DHT22;71289;51.552;6.210;2024-03-29T04:29:23;8.50;99.90
6142;DHT22;71289;51.552;6.210;2024-03-29T04:31:49;8.70;99.90
6142;DHT22;71289;51.552;6.210;2024-03-29T04:34:14;8.40;99.90
6142;DHT22;71289;51.552;6.210;2024-03-29T04:36:40;8.20;99.90
6142;DHT22;71289;51.552;6.210;2024-03-29T04:39:05;8.60;99.90
6142;DHT22;71289;51.552;6.210;2024-03-29T04:41:32;8.30;99.90
6142;DHT22;71289;51.552;6.210;2024-03-29T04:44:02;8.50;99.90
6142;DHT22;71289;51.552;6.210;2024-03-29T04:46:31;8.30;99.90
6142;DHT22;71289;51.552;6.210;2024-03-29T04:48:57;8.30;99.90
6142;DHT22;71289;51.552;6.210;2024-03-29T04:51:23;8.30;99.90
6142;DHT22;71289;51.552;6.210;2024-03-29T04:53:49;8.30;99.90
6142;DHT22;71289;51.552;6.210;2024-03-29T04:56:15;8.30;99.90
6142;DHT22;71289;51.552;6.210;2024-03-29T04:58:40;8.60;99.90
6142;DHT22;71289;51.552;6.210;2024-03-29T05:01:06;8.30;99.90
6142;DHT22;71289;51.552;6.210;2024-03-29T05:03:32;8.20;99.90
6142;DHT22;71289;51.552;6.210;2024-03-29T05:05:58;8.30;99.90
6142;DHT22;71289;51.552;6.210;2024-03-29T05:08:24;8.30;99.90
6142;DHT22;71289;51.552;6.210;2024-03-29T05:10:50;8.30;99.90
6142;DHT22;71289;51.552;6.210;2024-03-29T05:13:16;8.40;99.90
6142;DHT22;71289;51.552;6.210;2024-03-29T05:15:42;8.40;99.90
6142;DHT22;71289;51.552;6.210;2024-03-29T05:18:08;8.30;99.90
6142;DHT22;71289;51.552;6.210;2024-03-29T05:20:34;8.30;99.90
6142;DHT22;71289;51.552;6.210;2024-03-29T05:22:59;8.30;99.90
6142;DHT22;71289;51.552;6.210;2024-03-29T05:25:25;8.60;99.90
6142;DHT22;71289;51.552;6.210;2024-03-29T05:27:51;8.50;99.90
6142;DHT22;71289;51.552;6.210;2024-03-29T05:30:17;8.80;99.90
6142;DHT22;71289;51.552;6.210;2024-03-29T05:32:43;8.50;99.90
6142;DHT22;71289;51.552;6.210;2024-03-29T05:35:09;8.50;99.90
6142;DHT22;71289;51.552;6.210;2024-03-29T05:37:36;8.60;99.90
6142;DHT22;71289;51.552;6.210;2024-03-29T05:40:02;8.60;99.90
6142;DHT22;71289;51.552;6.210;2024-03-29T05:42:31;8.60;99.90
6142;DHT22;71289;51.552;6.210;2024-03-29T05:44:58;8.60;99.90
6142;DHT22;71289;51.552;6.210;2024-03-29T05:47:23;8.60;99.90
6142;DHT22;71289;51.552;6.210;2024-03-29T05:49:49;8.60;99.90
6142;DHT22;71289;51.552;6.210;2024-03-29T05:52:16;8.60;99.90
6142;DHT22;71289;51.552;6.210;2024-03-29T05:54:42;8.80;99.90
6142;DHT22;71289;51.552;6.210;2024-03-29T05:57:08;8.60;99.90
6142;DHT22;71289;51.552;6.210;2024-03-29T05:59:34;8.50;99.90
6142;DHT22;71289;51.552;6.210;2024-03-29T06:02:00;8.50;99.90
6142;DHT22;71289;51.552;6.210;2024-03-29T06:04:25;8.50;99.90
6142;DHT22;71289;51.552;6.210;2024-03-29T06:07:03;8.50;99.90
6142;DHT22;71289;51.552;6.210;2024-03-29T06:09:30;8.50;99.90
6142;DHT22;71289;51.552;6.210;2024-03-29T06:11:56;8.50;99.90
6142;DHT22;71289;51.552;6.210;2024-03-29T06:14:26;8.50;99.90
6142;DHT22;71289;51.552;6.210;2024-03-29T06:17:10;8.40;99.90
6142;DHT22;71289;51.552;6.210;2024-03-29T06:19:51;8.30;99.90
6142;DHT22;71289;51.552;6.210;2024-03-29T06:22:19;8.40;99.90
6142;DHT22;71289;51.552;6.210;2024-03-29T06:24:45;8.50;99.90
6142;DHT22;71289;51.552;6.210;2024-03-29T06:27:12;8.50;99.90
6142;DHT22;71289;51.552;6.210;2024-03-29T06:29:38;8.50;99.90
6142;DHT22;71289;51.552;6.210;2024-03-29T06:32:04;8.50;99.90
6142;DHT22;71289;51.552;6.210;2024-03-29T06:34:30;8.40;99.90
6142;DHT22;71289;51.552;6.210;2024-03-29T06:36:56;8.30;99.90
6142;DHT22;71289;51.552;6.210;2024-03-29T06:39:22;8.30;99.90
6142;DHT22;71289;51.552;6.210;2024-03-29T06:41:48;8.50;99.90
6142;DHT22;71289;51.552;6.210;2024-03-29T06:44:13;8.60;99.90
6142;DHT22;71289;51.552;6.210;2024-03-29T06:46:39;8.70;99.90
6142;DHT22;71289;51.552;6.210;2024-03-29T06:49:04;8.70;99.90
6142;DHT22;71289;51.552;6.210;2024-03-29T06:51:30;9.20;99.90
6142;DHT22;71289;51.552;6.210;2024-03-29T06:53:56;8.80;99.90
6142;DHT22;71289;51.552;6.210;2024-03-29T06:56:22;8.50;99.90
6142;DHT22;71289;51.552;6.210;2024-03-29T06:58:47;8.20;99.90
6142;DHT22;71289;51.552;6.210;2024-03-29T07:01:13;8.30;99.90
6142;DHT22;71289;51.552;6.210;2024-03-29T07:03:38;8.20;99.90
6142;DHT22;71289;51.552;6.210;2024-03-29T07:06:04;8.30;99.90
6142;DHT22;71289;51.552;6.210;2024-03-29T07:08:30;8.30;99.90
6142;DHT22;71289;51.552;6.210;2024-03-29T07:11:00;8.30;99.90
6142;DHT22;71289;51.552;6.210;2024-03-29T07:13:28;8.40;99.90
6142;DHT22;71289;51.552;6.210;2024-03-29T07:15:55;8.30;99.90
6142;DHT22;71289;51.552;6.210;2024-03-29T07:18:20;8.50;99.90
6142;DHT22;71289;51.552;6.210;2024-03-29T07:20:46;8.60;99.90
6142;DHT22;71289;51.552;6.210;2024-03-29T07:23:12;8.70;99.90
6142;DHT22;71289;51.552;6.210;2024-03-29T07:25:38;8.80;99.90
6142;DHT22;71289;51.552;6.210;2024-03-29T07:28:04;8.90;99.90
6142;DHT22;71289;51.552;6.210;2024-03-29T07:30:30;8.90;99.90
6142;DHT22;71289;51.552;6.210;2024-03-29T07:32:55;8.90;99.90
6142;DHT22;71289;51.552;6.210;2024-03-29T07:35:21;9.00;99.90
6142;DHT22;71289;51.552;6.210;2024-03-29T07:37:46;9.00;99.90
6142;DHT22;71289;51.552;6.210;2024-03-29T07:40:13;9.10;99.90
6142;DHT22;71289;51.552;6.210;2024-03-29T07:42:39;9.20;99.90
6142;DHT22;71289;51.552;6.210;2024-03-29T07:45:04;9.30;99.90
6142;DHT22;71289;51.552;6.210;2024-03-29T07:47:30;9.30;99.90
6142;DHT22;71289;51.552;6.210;2024-03-29T07:49:55;9.30;99.90
6142;DHT22;71289;51.552;6.210;2024-03-29T07:52:21;9.40;99.90
6142;DHT22;71289;51.552;6.210;2024-03-29T07:54:47;9.40;99.90
6142;DHT22;71289;51.552;6.210;2024-03-29T07:57:13;9.50;99.90
6142;DHT22;71289;51.552;6.210;2024-03-29T07:59:41;9.50;99.90
6142;DHT22;71289;51.552;6.210;2024-03-29T08:02:07;9.60;99.90
6142;DHT22;71289;51.552;6.210;2024-03-29T08:04:32;9.90;99.90
6142;DHT22;71289;51.552;6.210;2024-03-29T08:06:58;9.90;99.90
6142;DHT22;71289;51.552;6.210;2024-03-29T08:09:23;10.00;99.90
6142;DHT22;71289;51.552;6.210;2024-03-29T08:11:49;10.10;99.90
6142;DHT22;71289;51.552;6.210;2024-03-29T08:14:15;10.10;99.90
6142;DHT22;71289;51.552;6.210;2024-03-29T08:16:41;10.20;99.90
6142;DHT22;71289;51.552;6.210;2024-03-29T08:19:08;10.30;99.90
6142;DHT22;71289;51.552;6.210;2024-03-29T08:21:33;10.40;99.90
6142;DHT22;71289;51.552;6.210;2024-03-29T08:23:59;10.40;99.90
6142;DHT22;71289;51.552;6.210;2024-03-29T08:26:27;10.30;99.90
6142;DHT22;71289;51.552;6.210;2024-03-29T08:28:54;10.60;99.90
6142;DHT22;71289;51.552;6.210;2024-03-29T08:31:20;10.40;99.90
6142;DHT22;71289;51.552;6.210;2024-03-29T08:33:45;10.40;99.90
6142;DHT22;71289;51.552;6.210;2024-03-29T08:36:11;10.50;99.90
6142;DHT22;71289;51.552;6.210;2024-03-29T08:38:38;10.70;99.90
6142;DHT22;71289;51.552;6.210;2024-03-29T08:41:08;10.70;99.90
6142;DHT22;71289;51.552;6.210;2024-03-29T08:43:33;10.60;99.90
6142;DHT22;71289;51.552;6.210;2024-03-29T08:45:59;10.60;99.90
6142;DHT22;71289;51.552;6.210;2024-03-29T08:48:26;10.70;99.90
6142;DHT22;71289;51.552;6.210;2024-03-29T08:50:53;10.70;99.90
6142;DHT22;71289;51.552;6.210;2024-03-29T08:53:18;10.70;99.90
6142;DHT22;71289;51.552;6.210;2024-03-29T08:55:46;10.60;99.90
6142;DHT22;71289;51.552;6.210;2024-03-29T08:58:12;10.70;99.90
6142;DHT22;71289;51.552;6.210;2024-03-29T09:00:37;10.70;99.90
6142;DHT22;71289;51.552;6.210;2024-03-29T09:03:03;10.80;99.90
6142;DHT22;71289;51.552;6.210;2024-03-29T09:05:28;10.80;99.90
6142;DHT22;71289;51.552;6.210;2024-03-29T09:07:55;10.80;99.90
6142;DHT22;71289;51.552;6.210;2024-03-29T09:10:25;10.80;99.90
6142;DHT22;71289;51.552;6.210;2024-03-29T09:12:52;10.80;99.90
6142;DHT22;71289;51.552;6.210;2024-03-29T09:15:18;10.90;99.90
6142;DHT22;71289;51.552;6.210;2024-03-29T09:17:44;10.90;99.90
6142;DHT22;71289;51.552;6.210;2024-03-29T09:20:10;10.90;99.90
6142;DHT22;71289;51.552;6.210;2024-03-29T09:22:36;11.00;99.90
6142;DHT22;71289;51.552;6.210;2024-03-29T09:25:04;11.00;99.90
6142;DHT22;71289;51.552;6.210;2024-03-29T09:27:29;10.90;99.90
6142;DHT22;71289;51.552;6.210;2024-03-29T09:29:55;11.00;99.90
6142;DHT22;71289;51.552;6.210;2024-03-29T09:32:22;10.90;99.90
6142;DHT22;71289;51.552;6.210;2024-03-29T09:34:48;11.10;99.90
6142;DHT22;71289;51.552;6.210;2024-03-29T09:37:14;11.10;99.90
6142;DHT22;71289;51.552;6.210;2024-03-29T09:39:40;11.10;99.90
6142;DHT22;71289;51.552;6.210;2024-03-29T09:42:06;11.20;99.90
6142;DHT22;71289;51.552;6.210;2024-03-29T09:44:35;11.30;99.90
6142;DHT22;71289;51.552;6.210;2024-03-29T09:47:03;11.40;99.90
6142;DHT22;71289;51.552;6.210;2024-03-29T09:49:31;11.30;99.90
6142;DHT22;71289;51.552;6.210;2024-03-29T09:51:57;11.40;99.90
6142;DHT22;71289;51.552;6.210;2024-03-29T09:54:24;11.50;99.90
6142;DHT22;71289;51.552;6.210;2024-03-29T09:56:51;11.60;99.90
6142;DHT22;71289;51.552;6.210;2024-03-29T09:59:17;11.60;99.90
6142;DHT22;71289;51.552;6.210;2024-03-29T10:01:43;11.70;99.90
6142;DHT22;71289;51.552;6.210;2024-03-29T10:04:09;11.80;99.90
6142;DHT22;71289;51.552;6.210;2024-03-29T10:06:38;11.90;99.90
6142;DHT22;71289;51.552;6.210;2024-03-29T10:09:04;12.00;99.90
6142;DHT22;71289;51.552;6.210;2024-03-29T10:11:30;12.00;99.90
6142;DHT22;71289;51.552;6.210;2024-03-29T10:13:56;12.10;99.90
6142;DHT22;71289;51.552;6.210;2024-03-29T10:16:22;12.20;99.90
6142;DHT22;71289;51.552;6.210;2024-03-29T10:18:49;12.30;99.90
6142;DHT22;71289;51.552;6.210;2024-03-29T10:21:15;12.40;99.90
6142;DHT22;71289;51.552;6.210;2024-03-29T10:23:41;12.50;99.90
6142;DHT22;71289;51.552;6.210;2024-03-29T10:26:08;12.70;99.90
6142;DHT22;71289;51.552;6.210;2024-03-29T10:28:35;12.90;99.90
6142;DHT22;71289;51.552;6.210;2024-03-29T10:31:03;13.10;99.90
6142;DHT22;71289;51.552;6.210;2024-03-29T10:33:29;13.10;99.90
6142;DHT22;71289;51.552;6.210;2024-03-29T10:35:56;13.10;99.90
6142;DHT22;71289;51.552;6.210;2024-03-29T10:38:24;13.20;99.90
6142;DHT22;71289;51.552;6.210;2024-03-29T10:40:52;13.20;99.90
6142;DHT22;71289;51.552;6.210;2024-03-29T10:43:19;13.10;99.90
6142;DHT22;71289;51.552;6.210;2024-03-29T10:45:48;13.10;99.90
6142;DHT22;71289;51.552;6.210;2024-03-29T10:48:16;13.10;99.90
6142;DHT22;71289;51.552;6.210;2024-03-29T10:50:43;13.00;99.90
6142;DHT22;71289;51.552;6.210;2024-03-29T10:53:09;13.00;99.90
6142;DHT22;71289;51.552;6.210;2024-03-29T10:55:37;13.00;99.90
6142;DHT22;71289;51.552;6.210;2024-03-29T10:58:04;13.10;99.90
6142;DHT22;71289;51.552;6.210;2024-03-29T11:00:56;13.10;99.90
6142;DHT22;71289;51.552;6.210;2024-03-29T11:03:26;13.10;99.90
6142;DHT22;71289;51.552;6.210;2024-03-29T11:06:02;13.20;99.90
6142;DHT22;71289;51.552;6.210;2024-03-29T11:08:29;13.20;99.90
6142;DHT22;71289;51.552;6.210;2024-03-29T11:10:58;13.20;99.90
6142;DHT22;71289;51.552;6.210;2024-03-29T11:16:00;13.30;99.90
6142;DHT22;71289;51.552;6.210;2024-03-29T11:18:27;13.40;99.90
6142;DHT22;71289;51.552;6.210;2024-03-29T11:20:54;13.50;99.90
6142;DHT22;71289;51.552;6.210;2024-03-29T11:23:22;13.50;99.90
6142;DHT22;71289;51.552;6.210;2024-03-29T11:25:57;13.60;99.90
6142;DHT22;71289;51.552;6.210;2024-03-29T11:28:33;13.60;99.90
6142;DHT22;71289;51.552;6.210;2024-03-29T11:31:07;13.60;99.90
6142;DHT22;71289;51.552;6.210;2024-03-29T11:39:03;13.80;99.90
6142;DHT22;71289;51.552;6.210;2024-03-29T11:41:28;13.90;99.90
6142;DHT22;71289;51.552;6.210;2024-03-29T11:43:55;13.80;99.90
6142;DHT22;71289;51.552;6.210;2024-03-29T11:46:22;14.00;99.90
6142;DHT22;71289;51.552;6.210;2024-03-29T11:48:48;14.10;99.90
6142;DHT22;71289;51.552;6.210;2024-03-29T11:51:21;14.10;99.90
6142;DHT22;71289;51.552;6.210;2024-03-29T11:53:50;14.30;99.90
6142;DHT22;71289;51.552;6.210;2024-03-29T11:56:19;14.00;99.90
6142;DHT22;71289;51.552;6.210;2024-03-29T11:58:46;14.00;99.90
6142;DHT22;71289;51.552;6.210;2024-03-29T12:01:14;14.00;99.90
6142;DHT22;71289;51.552;6.210;2024-03-29T12:03:41;14.10;99.90
6142;DHT22;71289;51.552;6.210;2024-03-29T12:06:07;14.20;99.90
6142;DHT22;71289;51.552;6.210;2024-03-29T12:08:34;14.20;99.90
6142;DHT22;71289;51.552;6.210;2024-03-29T12:11:01;14.20;99.90
6142;DHT22;71289;51.552;6.210;2024-03-29T12:13:27;14.20;99.90
6142;DHT22;71289;51.552;6.210;2024-03-29T12:15:54;14.30;99.90
6142;DHT22;71289;51.552;6.210;2024-03-29T12:18:21;14.10;99.90
6142;DHT22;71289;51.552;6.210;2024-03-29T12:20:48;14.10;99.90
6142;DHT22;71289;51.552;6.210;2024-03-29T12:23:18;14.30;99.90
6142;DHT22;71289;51.552;6.210;2024-03-29T12:25:44;14.20;99.90
6142;DHT22;71289;51.552;6.210;2024-03-29T12:28:11;14.30;99.90
6142;DHT22;71289;51.552;6.210;2024-03-29T12:30:41;14.40;99.90
6142;DHT22;71289;51.552;6.210;2024-03-29T12:33:08;14.60;99.90
6142;DHT22;71289;51.552;6.210;2024-03-29T12:35:35;14.80;99.90
6142;DHT22;71289;51.552;6.210;2024-03-29T12:38:03;15.10;99.90
6142;DHT22;71289;51.552;6.210;2024-03-29T12:40:30;15.40;99.90
6142;DHT22;71289;51.552;6.210;2024-03-29T12:43:02;15.70;99.90
6142;DHT22;71289;51.552;6.210;2024-03-29T12:45:29;15.80;99.90
6142;DHT22;71289;51.552;6.210;2024-03-29T12:47:54;16.10;99.90
6142;DHT22;71289;51.552;6.210;2024-03-29T12:50:25;16.20;99.90
6142;DHT22;71289;51.552;6.210;2024-03-29T12:52:57;16.20;99.90
6142;DHT22;71289;51.552;6.210;2024-03-29T12:55:23;16.20;99.90
6142;DHT22;71289;51.552;6.210;2024-03-29T12:57:49;16.10;99.90
6142;DHT22;71289;51.552;6.210;2024-03-29T13:00:15;15.90;99.90
6142;DHT22;71289;51.552;6.210;2024-03-29T13:02:41;15.90;99.90
6142;DHT22;71289;51.552;6.210;2024-03-29T13:05:07;15.80;99.90
6142;DHT22;71289;51.552;6.210;2024-03-29T13:07:33;16.00;99.90
6142;DHT22;71289;51.552;6.210;2024-03-29T13:10:03;16.10;99.90
6142;DHT22;71289;51.552;6.210;2024-03-29T13:12:31;16.10;99.90
6142;DHT22;71289;51.552;6.210;2024-03-29T13:15:02;16.10;99.90
6142;DHT22;71289;51.552;6.210;2024-03-29T13:17:29;16.20;99.90
6142;DHT22;71289;51.552;6.210;2024-03-29T13:19:55;16.50;99.90
6142;DHT22;71289;51.552;6.210;2024-03-29T13:22:20;16.30;99.90
6142;DHT22;71289;51.552;6.210;2024-03-29T13:24:46;16.20;99.90
6142;DHT22;71289;51.552;6.210;2024-03-29T13:27:12;16.10;99.90
6142;DHT22;71289;51.552;6.210;2024-03-29T13:29:38;15.80;99.90
6142;DHT22;71289;51.552;6.210;2024-03-29T13:32:04;15.80;99.90
6142;DHT22;71289;51.552;6.210;2024-03-29T13:34:30;15.80;99.90
6142;DHT22;71289;51.552;6.210;2024-03-29T13:36:55;16.00;99.90
6142;DHT22;71289;51.552;6.210;2024-03-29T13:39:21;16.10;99.90
6142;DHT22;71289;51.552;6.210;2024-03-29T13:41:49;16.10;99.90
6142;DHT22;71289;51.552;6.210;2024-03-29T13:44:15;16.00;99.90
6142;DHT22;71289;51.552;6.210;2024-03-29T13:46:43;16.10;99.90
6142;DHT22;71289;51.552;6.210;2024-03-29T13:49:08;16.20;99.90
6142;DHT22;71289;51.552;6.210;2024-03-29T13:51:34;16.20;99.90
6142;DHT22;71289;51.552;6.210;2024-03-29T13:54:00;16.40;99.90
6142;DHT22;71289;51.552;6.210;2024-03-29T13:56:25;16.60;99.90
6142;DHT22;71289;51.552;6.210;2024-03-29T13:58:51;16.60;99.90
6142;DHT22;71289;51.552;6.210;2024-03-29T14:01:17;16.60;99.90
6142;DHT22;71289;51.552;6.210;2024-03-29T14:03:43;16.40;99.90
6142;DHT22;71289;51.552;6.210;2024-03-29T14:06:09;16.30;99.90
6142;DHT22;71289;51.552;6.210;2024-03-29T14:08:35;16.30;99.90
6142;DHT22;71289;51.552;6.210;2024-03-29T14:11:01;16.30;99.90
6142;DHT22;71289;51.552;6.210;2024-03-29T14:13:27;16.50;99.90
6142;DHT22;71289;51.552;6.210;2024-03-29T14:15:54;16.60;99.90
6142;DHT22;71289;51.552;6.210;2024-03-29T14:18:19;16.70;99.90
6142;DHT22;71289;51.552;6.210;2024-03-29T14:20:45;16.90;99.90
6142;DHT22;71289;51.552;6.210;2024-03-29T14:23:10;17.00;99.90
6142;DHT22;71289;51.552;6.210;2024-03-29T14:25:38;17.30;99.90
6142;DHT22;71289;51.552;6.210;2024-03-29T14:28:05;17.20;99.90
6142;DHT22;71289;51.552;6.210;2024-03-29T14:30:30;16.90;99.90
6142;DHT22;71289;51.552;6.210;2024-03-29T14:32:56;16.90;99.90
6142;DHT22;71289;51.552;6.210;2024-03-29T14:35:22;16.80;99.90
6142;DHT22;71289;51.552;6.210;2024-03-29T14:37:48;16.70;99.90
6142;DHT22;71289;51.552;6.210;2024-03-29T14:40:14;16.70;99.90
6142;DHT22;71289;51.552;6.210;2024-03-29T14:42:42;16.70;99.90
6142;DHT22;71289;51.552;6.210;2024-03-29T14:45:09;16.70;99.90
6142;DHT22;71289;51.552;6.210;2024-03-29T14:47:37;16.60;99.90
6142;DHT22;71289;51.552;6.210;2024-03-29T14:50:03;16.50;99.90
6142;DHT22;71289;51.552;6.210;2024-03-29T14:52:30;16.40;99.90
6142;DHT22;71289;51.552;6.210;2024-03-29T14:54:56;16.20;99.90
6142;DHT22;71289;51.552;6.210;2024-03-29T14:57:22;16.30;99.90
6142;DHT22;71289;51.552;6.210;2024-03-29T14:59:51;16.30;99.90
6142;DHT22;71289;51.552;6.210;2024-03-29T15:02:16;16.40;99.90
6142;DHT22;71289;51.552;6.210;2024-03-29T15:04:42;16.30;99.90
6142;DHT22;71289;51.552;6.210;2024-03-29T15:07:08;16.40;99.90
6142;DHT22;71289;51.552;6.210;2024-03-29T15:09:33;16.30;99.90
6142;DHT22;71289;51.552;6.210;2024-03-29T15:12:00;16.30;99.90
6142;DHT22;71289;51.552;6.210;2024-03-29T15:14:27;16.40;99.90
6142;DHT22;71289;51.552;6.210;2024-03-29T15:16:53;16.60;99.90
6142;DHT22;71289;51.552;6.210;2024-03-29T15:19:18;16.40;99.90
6142;DHT22;71289;51.552;6.210;2024-03-29T15:21:44;16.30;99.90
6142;DHT22;71289;51.552;6.210;2024-03-29T15:24:10;16.10;99.90
6142;DHT22;71289;51.552;6.210;2024-03-29T15:26:35;16.00;99.90
6142;DHT22;71289;51.552;6.210;2024-03-29T15:29:04;15.90;99.90
6142;DHT22;71289;51.552;6.210;2024-03-29T15:31:39;15.80;99.90
6142;DHT22;71289;51.552;6.210;2024-03-29T15:34:07;15.80;99.90
6142;DHT22;71289;51.552;6.210;2024-03-29T15:36:33;15.80;99.90
6142;DHT22;71289;51.552;6.210;2024-03-29T15:39:00;15.90;99.90
6142;DHT22;71289;51.552;6.210;2024-03-29T15:41:38;16.00;99.90
6142;DHT22;71289;51.552;6.210;2024-03-29T15:44:09;15.90;99.90
6142;DHT22;71289;51.552;6.210;2024-03-29T15:46:35;16.10;99.90
6142;DHT22;71289;51.552;6.210;2024-03-29T15:49:01;16.20;99.90
6142;DHT22;71289;51.552;6.210;2024-03-29T15:51:26;16.30;99.90
6142;DHT22;71289;51.552;6.210;2024-03-29T15:53:53;16.40;99.90
6142;DHT22;71289;51.552;6.210;2024-03-29T15:56:21;16.40;99.90
6142;DHT22;71289;51.552;6.210;2024-03-29T15:58:47;16.40;99.90